createdAt,value
2022-09-12T00:02:09.344Z,100234.25
2022-09-12T00:05:12.123Z,100235.88
2022-09-12T00:08:15.244Z,100242.34
2022-09-12T00:11:18.251Z,100231.41
2022-09-12T00:14:20.864Z,100240.19
2022-09-12T00:17:23.603Z,100239.84
2022-09-12T00:20:26.169Z,100235.56
2022-09-12T00:23:28.965Z,100232.00
2022-09-12T00:26:31.741Z,100239.72
2022-09-12T00:29:34.706Z,100247.69
2022-09-12T00:32:37.343Z,100246.84
2022-09-12T00:35:48.923Z,100242.25
2022-09-12T00:38:51.628Z,100245.31
2022-09-12T00:41:54.366Z,100246.81
2022-09-12T00:44:56.746Z,100247.72
2022-09-12T00:48:03.642Z,100248.56
2022-09-12T00:51:06.450Z,100247.53
2022-09-12T00:54:14.831Z,100249.12
2022-09-12T00:57:18.347Z,100242.25
2022-09-12T01:00:24.148Z,100248.47
2022-09-12T01:03:27.068Z,100250.81
2022-09-12T01:06:37.141Z,100251.91
2022-09-12T01:09:41.750Z,100249.97
2022-09-12T01:12:44.777Z,100246.63
2022-09-12T01:15:47.340Z,100239.25
2022-09-12T01:19:15.019Z,100234.22
2022-09-12T01:22:55.223Z,100229.25
2022-09-12T01:26:19.419Z,100225.62
2022-09-12T01:29:40.338Z,100232.16
2022-09-12T01:33:16.943Z,100227.72
2022-09-12T01:36:34.512Z,100228.16
2022-09-12T01:40:16.620Z,100234.97
2022-09-12T01:43:26.756Z,100237.44
2022-09-12T01:46:53.744Z,100243.78
2022-09-12T01:50:08.336Z,100239.34
2022-09-12T01:53:22.174Z,100246.25
2022-09-12T01:56:28.300Z,100232.53
2022-09-12T01:59:41.047Z,100238.94
2022-09-12T02:02:51.968Z,100240.06
2022-09-12T02:06:19.939Z,100226.00
2022-09-12T02:09:38.028Z,100230.56
2022-09-12T02:12:49.027Z,100233.19
2022-09-12T02:15:58.379Z,100226.75
2022-09-12T02:19:09.702Z,100222.47
2022-09-12T02:22:17.720Z,100221.44
2022-09-12T02:25:22.196Z,100227.31
2022-09-12T02:28:30.075Z,100229.00
2022-09-12T02:31:52.867Z,100230.84
2022-09-12T02:35:09.307Z,100232.34
2022-09-12T02:38:26.721Z,100232.72
2022-09-12T02:41:29.232Z,100248.09
2022-09-12T02:44:33.746Z,100250.66
2022-09-12T02:47:49.044Z,100251.50
2022-09-12T02:50:52.047Z,100257.00
2022-09-12T02:53:54.694Z,100258.25
2022-09-12T02:56:57.503Z,100252.06
2022-09-12T03:00:01.663Z,100259.59
2022-09-12T03:03:07.149Z,100256.59
2022-09-12T03:06:18.430Z,100249.25
2022-09-12T03:09:36.759Z,100241.44
2022-09-12T03:13:00.985Z,100253.28
2022-09-12T03:16:31.272Z,100254.94
2022-09-12T03:19:45.712Z,100256.94
2022-09-12T03:22:59.595Z,100254.63
2022-09-12T03:26:21.267Z,100259.31
2022-09-12T03:29:26.197Z,100261.94
2022-09-12T03:32:44.849Z,100262.28
2022-09-12T03:35:49.177Z,100268.72
2022-09-12T03:38:52.204Z,100264.03
2022-09-12T03:41:56.057Z,100264.63
2022-09-12T03:44:58.617Z,100258.75
2022-09-12T03:48:01.541Z,100258.88
2022-09-12T03:51:06.084Z,100263.53
2022-09-12T03:54:09.864Z,100264.22
2022-09-12T03:57:12.615Z,100258.81
2022-09-12T04:00:19.734Z,100258.31
2022-09-12T04:03:22.858Z,100265.72
2022-09-12T04:06:25.471Z,100258.59
2022-09-12T04:09:28.198Z,100258.47
2022-09-12T04:12:30.819Z,100261.28
2022-09-12T04:15:33.693Z,100259.81
2022-09-12T04:18:36.417Z,100265.94
2022-09-12T04:21:40.053Z,100263.34
2022-09-12T04:24:42.553Z,100260.31
2022-09-12T04:27:45.310Z,100274.69
2022-09-12T04:30:47.991Z,100266.38
2022-09-12T04:33:56.303Z,100278.56
2022-09-12T04:36:58.911Z,100270.75
2022-09-12T04:40:01.887Z,100271.16
2022-09-12T04:43:09.216Z,100270.41
2022-09-12T04:46:16.986Z,100267.50
2022-09-12T04:49:19.565Z,100269.41
2022-09-12T04:52:22.448Z,100273.78
2022-09-12T04:55:25.389Z,100272.13
2022-09-12T04:58:28.120Z,100285.56
2022-09-12T05:01:30.833Z,100269.75
2022-09-12T05:04:33.716Z,100274.06
2022-09-12T05:07:36.696Z,100273.41
2022-09-12T05:10:39.459Z,100268.88
2022-09-12T05:13:42.567Z,100275.22
2022-09-12T05:16:49.192Z,100271.75
2022-09-12T05:19:52.670Z,100265.81
2022-09-12T05:22:55.844Z,100269.28
2022-09-12T05:25:59.563Z,100277.87
2022-09-12T05:29:04.340Z,100289.78
2022-09-12T05:32:06.891Z,100286.22
2022-09-12T05:35:09.649Z,100301.13
2022-09-12T05:38:12.125Z,100308.37
2022-09-12T05:41:25.123Z,100306.78
2022-09-12T05:44:28.251Z,100313.56
2022-09-12T05:47:31.400Z,100314.00
2022-09-12T05:50:33.922Z,100327.12
2022-09-12T05:53:37.977Z,100323.06
2022-09-12T05:56:42.632Z,100317.59
2022-09-12T05:59:45.409Z,100317.63
2022-09-12T06:02:53.801Z,100315.09
2022-09-12T06:05:56.611Z,100323.22
2022-09-12T06:09:01.265Z,100321.91
2022-09-12T06:12:04.237Z,100324.75
2022-09-12T06:15:08.037Z,100329.59
2022-09-12T06:18:11.010Z,100329.28
2022-09-12T06:21:13.990Z,100323.53
2022-09-12T06:24:18.224Z,100321.03
2022-09-12T06:27:20.747Z,100326.38
2022-09-12T06:30:25.489Z,100336.34
2022-09-12T06:33:28.152Z,100329.28
2022-09-12T06:36:34.092Z,100337.19
2022-09-12T06:39:38.420Z,100343.50
2022-09-12T06:42:41.223Z,100341.38
2022-09-12T06:45:51.240Z,100349.22
2022-09-12T06:48:56.623Z,100338.41
2022-09-12T06:51:59.156Z,100345.19
2022-09-12T06:55:01.939Z,100352.41
2022-09-12T06:58:05.553Z,100340.56
2022-09-12T07:01:14.215Z,100343.06
2022-09-12T07:04:16.763Z,100338.22
2022-09-12T07:07:19.565Z,100343.00
2022-09-12T07:10:22.696Z,100337.97
2022-09-12T07:13:25.610Z,100345.03
2022-09-12T07:16:28.847Z,100345.19
2022-09-12T07:19:31.645Z,100347.56
2022-09-12T07:22:34.113Z,100335.50
2022-09-12T07:25:37.712Z,100342.00
2022-09-12T07:28:41.055Z,100347.16
2022-09-12T07:31:44.546Z,100352.13
2022-09-12T07:34:47.469Z,100351.31
2022-09-12T07:37:50.319Z,100357.88
2022-09-12T07:40:52.827Z,100361.81
2022-09-12T07:43:57.786Z,100364.16
2022-09-12T07:47:01.142Z,100361.00
2022-09-12T07:50:04.169Z,100360.41
2022-09-12T07:53:07.035Z,100352.06
2022-09-12T07:56:11.295Z,100354.12
2022-09-12T07:59:25.493Z,100357.78
2022-09-12T08:02:41.498Z,100354.50
2022-09-12T08:05:44.377Z,100355.00
2022-09-12T08:08:48.446Z,100353.09
2022-09-12T08:11:51.232Z,100352.00
2022-09-12T08:14:53.790Z,100353.69
2022-09-12T08:17:56.678Z,100359.37
2022-09-12T08:21:00.839Z,100357.28
2022-09-12T08:24:05.955Z,100358.56
2022-09-12T08:27:08.548Z,100351.41
2022-09-12T08:30:14.992Z,100346.63
2022-09-12T08:33:17.997Z,100348.53
2022-09-12T08:36:24.018Z,100346.75
2022-09-12T08:39:26.467Z,100349.63
2022-09-12T08:42:42.870Z,100348.56
2022-09-12T08:45:58.336Z,100344.09
2022-09-12T08:49:04.282Z,100347.59
2022-09-12T08:52:15.604Z,100347.41
2022-09-12T08:55:33.845Z,100338.50
2022-09-12T08:58:40.870Z,100336.94
2022-09-12T09:01:45.538Z,100343.78
2022-09-12T09:04:56.443Z,100331.72
2022-09-12T09:08:08.801Z,100326.22
2022-09-12T09:11:21.326Z,100334.59
2022-09-12T09:14:51.880Z,100330.34
2022-09-12T09:18:11.106Z,100329.88
2022-09-12T09:21:33.566Z,100329.75
2022-09-12T09:24:48.946Z,100332.50
2022-09-12T09:28:22.733Z,100328.69
2022-09-12T09:31:28.914Z,100334.75
2022-09-12T09:34:32.068Z,100330.34
2022-09-12T09:37:58.882Z,100323.22
2022-09-12T09:41:14.078Z,100319.75
2022-09-12T09:44:17.584Z,100327.03
2022-09-12T09:47:20.412Z,100327.09
2022-09-12T09:50:24.052Z,100318.19
2022-09-12T09:54:14.721Z,100336.47
2022-09-12T09:57:35.510Z,100327.44
2022-09-12T10:00:39.173Z,100323.81
2022-09-12T10:03:56.047Z,100323.09
2022-09-12T10:07:01.271Z,100323.75
2022-09-12T10:10:23.244Z,100323.84
2022-09-12T10:13:37.605Z,100318.13
2022-09-12T10:16:53.285Z,100314.38
2022-09-12T10:20:17.549Z,100314.19
2022-09-12T10:23:37.062Z,100325.75
2022-09-12T10:26:41.567Z,100327.34
2022-09-12T10:29:54.642Z,100336.19
2022-09-12T10:33:06.521Z,100325.94
2022-09-12T10:36:09.468Z,100329.94
2022-09-12T10:39:18.670Z,100326.09
2022-09-12T10:42:46.759Z,100321.56
2022-09-12T10:45:49.164Z,100310.59
2022-09-12T10:49:14.681Z,100319.50
2022-09-12T10:52:27.372Z,100313.41
2022-09-12T10:55:35.496Z,100321.72
2022-09-12T10:58:48.825Z,100305.19
2022-09-12T11:01:58.495Z,100301.16
2022-09-12T11:05:36.827Z,100301.28
2022-09-12T11:09:10.047Z,100295.03
2022-09-12T11:12:24.294Z,100302.00
2022-09-12T11:15:55.516Z,100295.34
2022-09-12T11:19:19.967Z,100296.41
2022-09-12T11:22:31.719Z,100290.56
2022-09-12T11:25:46.226Z,100290.44
2022-09-12T11:28:55.843Z,100299.91
2022-09-12T11:32:23.543Z,100288.94
2022-09-12T11:35:29.732Z,100289.75
2022-09-12T11:38:51.161Z,100303.47
2022-09-12T11:42:00.501Z,100291.87
2022-09-12T11:45:13.873Z,100289.75
2022-09-12T11:48:46.269Z,100296.03
2022-09-12T11:52:18.535Z,100298.03
2022-09-12T11:55:29.840Z,100303.78
2022-09-12T11:58:32.702Z,100295.50
2022-09-12T12:01:44.996Z,100301.28
2022-09-12T12:05:20.938Z,100296.28
2022-09-12T12:08:27.605Z,100296.28
2022-09-12T12:11:34.457Z,100288.19
2022-09-12T12:14:46.836Z,100290.22
2022-09-12T12:18:04.015Z,100286.00
2022-09-12T12:21:32.123Z,100272.78
2022-09-12T12:24:35.240Z,100272.75
2022-09-12T12:28:06.333Z,100263.94
2022-09-12T12:31:11.364Z,100269.34
2022-09-12T12:34:35.207Z,100259.97
2022-09-12T12:37:43.939Z,100265.19
2022-09-12T12:40:46.973Z,100261.91
2022-09-12T12:43:56.235Z,100278.84
2022-09-12T12:47:20.218Z,100265.81
2022-09-12T12:50:29.315Z,100268.44
2022-09-12T12:53:31.852Z,100272.34
2022-09-12T12:56:41.989Z,100269.47
2022-09-12T13:00:08.897Z,100259.81
2022-09-12T13:03:41.119Z,100266.31
2022-09-12T13:06:46.516Z,100259.09
2022-09-12T13:09:52.959Z,100266.84
2022-09-12T13:13:03.432Z,100272.03
2022-09-12T13:16:06.474Z,100270.13
2022-09-12T13:19:19.245Z,100267.13
2022-09-12T13:22:24.646Z,100266.09
2022-09-12T13:25:32.877Z,100257.81
2022-09-12T13:28:36.035Z,100250.94
2022-09-12T13:31:39.376Z,100249.56
2022-09-12T13:35:23.529Z,100242.12
2022-09-12T13:39:03.169Z,100239.06
2022-09-12T13:42:33.339Z,100244.41
2022-09-12T13:45:39.527Z,100247.37
2022-09-12T13:48:43.620Z,100238.41
2022-09-12T13:51:46.200Z,100231.25
2022-09-12T13:54:53.848Z,100238.31
2022-09-12T13:58:05.113Z,100222.81
2022-09-12T14:01:10.865Z,100230.09
2022-09-12T14:04:36.692Z,100226.53
2022-09-12T14:07:51.163Z,100230.03
2022-09-12T14:10:54.775Z,100225.19
2022-09-12T14:13:58.296Z,100224.84
2022-09-12T14:17:01.138Z,100210.34
2022-09-12T14:20:14.704Z,100218.03
2022-09-12T14:23:29.652Z,100215.62
2022-09-12T14:26:39.015Z,100226.28
2022-09-12T14:29:44.080Z,100215.66
2022-09-12T14:33:06.216Z,100223.16
2022-09-12T14:36:15.734Z,100218.00
2022-09-12T14:39:21.881Z,100220.78
2022-09-12T14:42:30.353Z,100216.41
2022-09-12T14:45:33.319Z,100219.91
2022-09-12T14:48:43.260Z,100225.50
2022-09-12T14:51:51.742Z,100222.09
2022-09-12T14:55:21.617Z,100230.00
2022-09-12T14:58:27.380Z,100237.69
2022-09-12T15:01:30.191Z,100222.09
2022-09-12T15:04:42.205Z,100223.03
2022-09-12T15:07:53.925Z,100229.19
2022-09-12T15:10:57.441Z,100217.88
2022-09-12T15:14:12.881Z,100216.09
2022-09-12T15:17:15.365Z,100219.75
2022-09-12T15:20:18.186Z,100209.94
2022-09-12T15:23:31.119Z,100213.03
2022-09-12T15:26:33.910Z,100213.59
2022-09-12T15:29:36.423Z,100218.69
2022-09-12T15:32:41.985Z,100207.78
2022-09-12T15:35:44.968Z,100213.63
2022-09-12T15:38:48.860Z,100201.38
2022-09-12T15:41:51.672Z,100207.00
2022-09-12T15:44:54.787Z,100212.91
2022-09-12T15:47:59.899Z,100197.84
2022-09-12T15:51:04.801Z,100209.13
2022-09-12T15:54:07.284Z,100204.62
2022-09-12T15:57:10.228Z,100210.22
2022-09-12T16:00:14.398Z,100207.34
2022-09-12T16:03:27.580Z,100203.53
2022-09-12T16:06:36.264Z,100204.50
2022-09-12T16:09:40.172Z,100210.22
2022-09-12T16:12:44.624Z,100205.25
2022-09-12T16:15:47.385Z,100214.88
2022-09-12T16:18:49.962Z,100211.84
2022-09-12T16:21:52.867Z,100207.28
2022-09-12T16:24:55.360Z,100210.16
2022-09-12T16:27:58.353Z,100204.47
2022-09-12T16:31:05.795Z,100205.88
2022-09-12T16:34:08.684Z,100214.41
2022-09-12T16:37:11.262Z,100215.72
2022-09-12T16:40:15.845Z,100209.34
2022-09-12T16:43:18.435Z,100201.25
2022-09-12T16:46:24.168Z,100205.25
2022-09-12T16:49:26.770Z,100206.87
2022-09-12T16:52:30.262Z,100204.09
2022-09-12T16:55:32.681Z,100202.75
2022-09-12T16:58:41.577Z,100201.72
2022-09-12T17:01:45.292Z,100206.00
2022-09-12T17:04:48.855Z,100209.75
2022-09-12T17:07:51.967Z,100213.22
2022-09-12T17:11:05.943Z,100213.53
2022-09-12T17:14:09.034Z,100209.75
2022-09-12T17:17:12.054Z,100222.38
2022-09-12T17:20:14.698Z,100221.34
2022-09-12T17:23:17.908Z,100225.16
2022-09-12T17:26:20.856Z,100225.06
2022-09-12T17:29:23.643Z,100224.28
2022-09-12T17:32:26.033Z,100232.16
2022-09-12T17:35:29.110Z,100226.87
2022-09-12T17:38:34.153Z,100236.44
2022-09-12T17:41:37.694Z,100236.91
2022-09-12T17:44:40.498Z,100247.16
2022-09-12T17:47:43.335Z,100248.13
2022-09-12T17:50:46.578Z,100254.81
2022-09-12T17:53:49.368Z,100256.22
2022-09-12T17:56:52.287Z,100260.75
2022-09-12T17:59:54.968Z,100261.59
2022-09-12T18:02:58.017Z,100269.44
2022-09-12T18:06:01.052Z,100263.97
2022-09-12T18:09:06.394Z,100277.37
2022-09-12T18:12:10.100Z,100278.22
2022-09-12T18:15:13.181Z,100277.16
2022-09-12T18:18:16.126Z,100277.72
2022-09-12T18:21:19.822Z,100278.56
2022-09-12T18:24:23.133Z,100282.56
2022-09-12T18:27:25.675Z,100283.28
2022-09-12T18:30:30.096Z,100287.53
2022-09-12T18:33:34.015Z,100289.66
2022-09-12T18:36:37.088Z,100294.75
2022-09-12T18:39:39.675Z,100304.75
2022-09-12T18:42:42.438Z,100298.16
2022-09-12T18:45:45.035Z,100297.97
2022-09-12T18:48:47.879Z,100294.94
2022-09-12T18:51:50.479Z,100300.22
2022-09-12T18:54:53.335Z,100293.53
2022-09-12T18:57:55.856Z,100296.81
2022-09-12T19:00:59.214Z,100289.25
2022-09-12T19:04:04.740Z,100293.28
2022-09-12T19:07:07.814Z,100297.44
2022-09-12T19:10:10.321Z,100307.41
2022-09-12T19:13:13.114Z,100301.63
2022-09-12T19:16:34.675Z,100305.84
2022-09-12T19:19:40.469Z,100302.91
2022-09-12T19:22:43.852Z,100302.91
2022-09-12T19:25:56.887Z,100303.84
2022-09-12T19:29:02.488Z,100309.19
2022-09-12T19:32:05.474Z,100315.03
2022-09-12T19:35:08.509Z,100312.75
2022-09-12T19:38:12.223Z,100316.09
2022-09-12T19:41:15.334Z,100314.38
2022-09-12T19:44:19.354Z,100311.34
2022-09-12T19:47:22.069Z,100301.81
2022-09-12T19:50:28.225Z,100302.03
2022-09-12T19:53:31.434Z,100300.19
2022-09-12T19:56:34.261Z,100300.06
2022-09-12T19:59:40.290Z,100309.59
2022-09-12T20:02:43.221Z,100310.75
2022-09-12T20:05:46.023Z,100305.22
2022-09-12T20:08:49.176Z,100302.66
2022-09-12T20:11:52.004Z,100306.94
2022-09-12T20:14:54.566Z,100294.56
2022-09-12T20:17:57.966Z,100289.09
2022-09-12T20:21:11.670Z,100285.22
2022-09-12T20:24:16.027Z,100286.91
2022-09-12T20:27:18.635Z,100287.25
2022-09-12T20:30:21.437Z,100305.22
2022-09-12T20:33:23.891Z,100302.66
2022-09-12T20:36:26.962Z,100306.13
2022-09-12T20:39:29.462Z,100306.06
2022-09-12T20:42:32.197Z,100309.97
2022-09-12T20:45:41.432Z,100311.59
2022-09-12T20:48:44.190Z,100308.72
2022-09-12T20:51:48.341Z,100313.28
2022-09-12T20:54:51.188Z,100320.41
2022-09-12T20:57:53.659Z,100316.09
2022-09-12T21:00:56.501Z,100321.56
2022-09-12T21:04:00.749Z,100325.88
2022-09-12T21:07:03.595Z,100322.16
2022-09-12T21:10:06.364Z,100327.28
2022-09-12T21:13:10.933Z,100325.34
2022-09-12T21:16:16.755Z,100318.87
2022-09-12T21:19:19.632Z,100319.38
2022-09-12T21:22:22.197Z,100324.06
2022-09-12T21:25:25.179Z,100328.69
2022-09-12T21:28:28.509Z,100337.09
2022-09-12T21:31:31.303Z,100335.87
2022-09-12T21:34:33.928Z,100335.78
2022-09-12T21:37:37.158Z,100344.84
2022-09-12T21:40:39.662Z,100347.00
2022-09-12T21:43:43.579Z,100343.94
2022-09-12T21:46:46.187Z,100348.41
2022-09-12T21:49:48.981Z,100359.59
2022-09-12T21:52:51.706Z,100364.16
2022-09-12T21:55:55.038Z,100368.91
2022-09-12T21:58:57.566Z,100372.97
2022-09-12T22:02:00.423Z,100379.66
2022-09-12T22:05:04.169Z,100370.59
2022-09-12T22:08:08.149Z,100371.78
2022-09-12T22:11:10.898Z,100371.69
2022-09-12T22:14:13.392Z,100372.53
2022-09-12T22:17:16.283Z,100372.13
2022-09-12T22:20:19.266Z,100368.12
2022-09-12T22:23:40.565Z,100364.75
2022-09-12T22:26:45.161Z,100358.22
2022-09-12T22:29:50.571Z,100360.69
2022-09-12T22:32:53.156Z,100367.16
2022-09-12T22:35:55.915Z,100367.25
2022-09-12T22:39:00.291Z,100368.69
2022-09-12T22:42:03.834Z,100380.22
2022-09-12T22:45:07.621Z,100375.00
2022-09-12T22:48:10.426Z,100375.50
2022-09-12T22:51:13.698Z,100379.94
2022-09-12T22:54:16.463Z,100374.84
2022-09-12T22:57:19.301Z,100377.53
2022-09-12T23:00:23.587Z,100378.38
2022-09-12T23:03:26.188Z,100375.28
2022-09-12T23:06:29.513Z,100379.47
2022-09-12T23:09:35.247Z,100382.41
2022-09-12T23:12:38.309Z,100380.78
2022-09-12T23:15:41.315Z,100377.03
2022-09-12T23:18:44.379Z,100367.38
2022-09-12T23:21:46.814Z,100377.88
2022-09-12T23:24:49.548Z,100369.03
2022-09-12T23:27:52.161Z,100369.66
2022-09-12T23:30:55.975Z,100363.84
2022-09-12T23:34:02.019Z,100365.78
2022-09-12T23:37:04.747Z,100369.53
2022-09-12T23:40:09.149Z,100372.28
2022-09-12T23:43:11.942Z,100370.84
2022-09-12T23:46:15.959Z,100364.97
2022-09-12T23:49:18.785Z,100362.37
2022-09-12T23:52:21.296Z,100367.72
2022-09-12T23:55:24.555Z,100371.22
2022-09-12T23:58:27.171Z,100368.03
